Time;durP1;ratioP1;P1;durP2;ratioP2;P2;SDS_P1;SDS_P2;PMS_P1;PMS_P2;Temp;Humidity;BMP_temperature;BMP_pressure;BME280_temperature;BME280_humidity;BME280_pressure;Samples;Min_cycle;Max_cycle;Signal;HPM_P1;HPM_P2
2021/10/31 00:01:12;;;;;;;13.05;10.55;;;11.80;99.90;;;;;;4990480;28;20050;-57
2021/10/31 00:03:38;;;;;;;13.55;9.55;;;11.80;99.90;;;;;;5000440;28;20022;-59
2021/10/31 00:06:03;;;;;;;12.43;10.15;;;11.80;99.90;;;;;;5001254;28;20033;-60
2021/10/31 00:08:29;;;;;;;12.98;10.55;;;11.80;99.90;;;;;;5000121;28;20029;-58
2021/10/31 00:10:56;;;;;;;13.10;10.48;;;11.80;99.90;;;;;;5005450;28;20033;-59
2021/10/31 00:13:23;;;;;;;13.55;10.27;;;11.80;99.90;;;;;;4992203;28;20042;-58
2021/10/31 00:15:49;;;;;;;13.52;11.00;;;11.80;99.90;;;;;;4999861;28;20041;-59
2021/10/31 00:18:15;;;;;;;12.23;10.48;;;11.80;99.90;;;;;;4989604;28;20391;-59
2021/10/31 00:20:41;;;;;;;11.93;10.40;;;11.80;99.90;;;;;;4996553;28;20783;-59
2021/10/31 00:23:08;;;;;;;13.38;9.65;;;11.80;99.90;;;;;;5000145;28;20029;-57
2021/10/31 00:25:34;;;;;;;11.63;8.75;;;11.70;99.90;;;;;;4996912;28;20109;-59
2021/10/31 00:27:59;;;;;;;12.85;9.32;;;11.60;99.90;;;;;;4992451;28;20459;-59
2021/10/31 00:30:25;;;;;;;11.77;9.05;;;11.60;99.90;;;;;;4993614;28;20037;-59
2021/10/31 00:32:51;;;;;;;9.73;8.52;;;11.50;99.90;;;;;;4996972;28;20428;-59
2021/10/31 00:35:16;;;;;;;9.30;7.70;;;11.40;99.90;;;;;;4998949;28;20022;-58
2021/10/31 00:37:42;;;;;;;14.60;9.23;;;11.30;99.90;;;;;;4996765;28;20030;-60
2021/10/31 00:40:08;;;;;;;12.55;9.20;;;11.20;99.90;;;;;;5006605;28;20030;-60
2021/10/31 00:42:33;;;;;;;11.45;8.57;;;11.20;99.90;;;;;;5012367;28;20040;-60
2021/10/31 00:44:59;;;;;;;10.85;8.32;;;11.20;99.90;;;;;;4995667;28;20023;-58
2021/10/31 00:47:25;;;;;;;13.82;8.77;;;11.10;99.90;;;;;;4985874;28;20064;-57
2021/10/31 00:49:50;;;;;;;11.68;8.85;;;11.00;99.90;;;;;;4999429;28;20033;-58
2021/10/31 00:52:17;;;;;;;13.27;9.32;;;11.00;99.90;;;;;;5006197;28;20022;-60
2021/10/31 00:54:42;;;;;;;13.88;8.55;;;10.90;99.90;;;;;;5009287;28;20511;-59
2021/10/31 00:57:11;;;;;;;12.32;8.13;;;10.80;99.90;;;;;;5007992;28;20073;-59
2021/10/31 00:59:37;;;;;;;13.45;9.55;;;10.80;99.90;;;;;;5009567;28;20036;-59
2021/10/31 01:02:08;;;;;;;12.13;9.20;;;10.70;99.90;;;;;;5000902;28;20491;-59
2021/10/31 01:04:34;;;;;;;13.07;9.77;;;10.60;99.90;;;;;;4999813;28;20121;-57
2021/10/31 01:07:18;;;;;;;11.88;9.60;;;10.60;99.90;;;;;;4992578;28;20543;-58
2021/10/31 01:10:15;;;;;;;12.48;9.52;;;10.50;99.90;;;;;;5006641;28;20860;-59
2021/10/31 01:12:58;;;;;;;14.00;9.52;;;10.40;99.90;;;;;;5004657;28;20095;-57
2021/10/31 01:15:42;;;;;;;13.70;9.63;;;10.40;99.90;;;;;;5008818;28;20026;-59
2021/10/31 01:18:11;;;;;;;;;;;10.30;99.90;;;;;;5001539;28;20054;-58
2021/10/31 01:20:45;;;;;;;12.27;9.15;;;10.30;99.90;;;;;;5007043;28;20000;-58
2021/10/31 01:23:29;;;;;;;13.48;9.48;;;10.30;99.90;;;;;;4998988;28;20058;-59
2021/10/31 01:26:07;;;;;;;12.82;10.15;;;10.20;99.90;;;;;;4992683;28;20464;-58
2021/10/31 01:28:50;;;;;;;12.73;10.05;;;10.10;99.90;;;;;;4999499;28;20027;-58
2021/10/31 01:31:26;;;;;;;14.95;10.77;;;10.00;99.90;;;;;;4992503;28;20030;-57
2021/10/31 01:34:13;;;;;;;13.73;9.55;;;10.00;99.90;;;;;;4991996;28;20034;-59
2021/10/31 01:36:59;;;;;;;19.67;13.60;;;10.00;99.90;;;;;;4992302;28;20022;-58
2021/10/31 01:39:30;;;;;;;15.13;10.65;;;10.00;99.90;;;;;;4992411;28;20163;-58
2021/10/31 01:42:23;;;;;;;17.70;12.55;;;9.90;99.90;;;;;;4993638;28;20507;-57
2021/10/31 01:44:52;;;;;;;16.30;11.80;;;10.00;99.90;;;;;;4998302;28;20038;-58
2021/10/31 01:47:56;;;;;;;13.73;10.48;;;10.00;99.90;;;;;;4980899;28;20443;-59
2021/10/31 01:50:30;;;;;;;16.52;11.23;;;9.90;99.90;;;;;;4991631;28;20109;-59
2021/10/31 01:53:23;;;;;;;13.95;11.13;;;9.90;99.90;;;;;;4991454;28;20089;-58
2021/10/31 01:56:02;;;;;;;21.23;15.15;;;9.80;99.90;;;;;;4982267;28;20619;-59
2021/10/31 01:58:32;;;;;;;19.85;13.13;;;9.90;99.90;;;;;;4992111;28;20038;-58
2021/10/31 02:01:01;;;;;;;25.92;13.95;;;9.90;99.90;;;;;;5010021;28;20034;-59
2021/10/31 02:03:29;;;;;;;17.83;12.65;;;9.80;99.90;;;;;;5007991;28;20026;-59
2021/10/31 02:05:57;;;;;;;17.92;13.25;;;9.80;99.90;;;;;;4997326;28;20487;-58
2021/10/31 02:08:24;;;;;;;24.30;16.20;;;9.70;99.90;;;;;;5000658;28;20029;-59
2021/10/31 02:10:52;;;;;;;26.52;16.88;;;9.70;99.90;;;;;;5009168;28;20030;-59
2021/10/31 02:13:19;;;;;;;22.25;14.30;;;9.80;99.90;;;;;;5005497;28;20094;-59
2021/10/31 02:15:48;;;;;;;30.48;18.13;;;9.90;99.90;;;;;;5002116;28;20030;-59
2021/10/31 02:18:14;;;;;;;23.48;14.20;;;9.90;99.90;;;;;;5004392;28;20030;-60
2021/10/31 02:20:43;;;;;;;16.70;12.50;;;9.80;99.90;;;;;;5006753;28;20386;-60
2021/10/31 02:23:09;;;;;;;20.50;12.63;;;9.70;99.90;;;;;;5003866;28;20038;-59
2021/10/31 02:25:35;;;;;;;20.85;14.68;;;9.70;99.90;;;;;;5004855;28;20029;-59
2021/10/31 02:28:01;;;;;;;23.35;15.93;;;9.70;99.90;;;;;;4991232;28;20031;-60
2021/10/31 02:30:27;;;;;;;17.05;12.45;;;9.90;99.90;;;;;;4996777;28;20041;-59
2021/10/31 02:32:53;;;;;;;19.60;12.13;;;9.80;99.90;;;;;;4996156;28;20045;-59
2021/10/31 02:35:21;;;;;;;18.90;12.45;;;9.80;99.90;;;;;;5010634;28;20022;-57
2021/10/31 02:37:46;;;;;;;15.68;10.05;;;9.70;99.90;;;;;;5000998;28;20046;-59
2021/10/31 02:40:15;;;;;;;16.35;9.07;;;9.70;99.90;;;;;;5003670;28;20026;-60
2021/10/31 02:42:41;;;;;;;14.13;9.27;;;9.60;99.90;;;;;;4995296;28;20117;-58
2021/10/31 02:45:08;;;;;;;16.67;10.43;;;9.60;99.90;;;;;;5002036;28;20160;-59
2021/10/31 02:47:40;;;;;;;13.70;9.82;;;9.50;99.90;;;;;;4997791;28;20033;-59
2021/10/31 02:50:16;;;;;;;11.27;8.32;;;9.50;99.90;;;;;;4997896;28;20171;-59
2021/10/31 02:52:48;;;;;;;11.68;8.65;;;9.50;99.90;;;;;;4998708;28;20109;-59
2021/10/31 02:55:23;;;;;;;26.25;13.38;;;9.50;99.90;;;;;;5008213;28;20081;-58
2021/10/31 02:58:01;;;;;;;115.30;17.77;;;9.60;99.90;;;;;;4998221;28;20391;-59
2021/10/31 03:00:29;;;;;;;78.55;14.80;;;9.70;99.90;;;;;;5000830;28;20026;-59
2021/10/31 03:02:57;;;;;;;80.32;14.13;;;9.70;99.90;;;;;;5003893;28;20029;-58
2021/10/31 03:05:23;;;;;;;172.65;17.17;;;9.70;99.90;;;;;;5003689;28;20025;-59
2021/10/31 03:07:50;;;;;;;103.00;14.02;;;9.70;99.90;;;;;;5001459;28;20428;-58
2021/10/31 03:10:17;;;;;;;98.35;15.18;;;9.70;99.90;;;;;;5014027;28;20057;-59
2021/10/31 03:12:47;;;;;;;65.18;14.00;;;9.70;99.90;;;;;;5003667;28;20048;-60
2021/10/31 03:15:12;;;;;;;186.05;17.05;;;9.70;99.90;;;;;;5008217;28;20037;-59
2021/10/31 03:17:38;;;;;;;154.70;16.80;;;9.70;99.90;;;;;;5024234;23;20042;-61
2021/10/31 03:20:04;;;;;;;68.70;15.30;;;9.70;99.90;;;;;;5008657;28;20033;-59
2021/10/31 03:22:31;;;;;;;23.00;14.90;;;9.70;99.90;;;;;;5008344;28;20061;-61
2021/10/31 03:24:57;;;;;;;33.92;18.50;;;9.60;99.90;;;;;;5009954;28;20022;-60
2021/10/31 03:27:23;;;;;;;28.60;18.33;;;9.60;99.90;;;;;;5008937;28;20026;-60
2021/10/31 03:29:49;;;;;;;33.13;20.20;;;9.60;99.90;;;;;;5013934;28;20025;-59
2021/10/31 03:32:14;;;;;;;51.92;20.33;;;9.60;99.90;;;;;;5012212;28;20088;-56
2021/10/31 03:34:40;;;;;;;42.40;20.38;;;9.60;99.90;;;;;;5008812;28;20067;-61
2021/10/31 03:37:06;;;;;;;32.03;19.00;;;9.50;99.90;;;;;;5017169;28;20036;-62
2021/10/31 03:39:31;;;;;;;32.17;19.73;;;9.50;99.90;;;;;;5013660;28;20534;-60
2021/10/31 03:41:57;;;;;;;39.63;22.08;;;9.50;99.90;;;;;;5011821;28;20030;-60
2021/10/31 03:44:23;;;;;;;26.50;18.02;;;9.60;99.90;;;;;;5010929;28;20030;-60
2021/10/31 03:46:49;;;;;;;36.47;21.35;;;9.60;99.90;;;;;;5003010;28;20029;-60
2021/10/31 03:49:15;;;;;;;31.15;18.27;;;9.60;99.90;;;;;;5009641;28;20045;-60
2021/10/31 03:51:42;;;;;;;31.20;17.95;;;9.60;99.90;;;;;;5012955;28;20045;-62
2021/10/31 03:54:08;;;;;;;33.10;19.73;;;9.60;99.90;;;;;;5009021;28;20045;-58
2021/10/31 03:56:33;;;;;;;28.35;17.95;;;9.60;99.90;;;;;;5006532;28;20026;-60
2021/10/31 03:58:59;;;;;;;26.70;17.00;;;9.50;99.90;;;;;;5011078;28;20708;-59
2021/10/31 04:01:25;;;;;;;26.67;18.35;;;9.50;99.90;;;;;;5009409;28;20121;-60
2021/10/31 04:03:50;;;;;;;27.55;16.60;;;9.40;99.90;;;;;;5009180;28;20450;-60
2021/10/31 04:06:16;;;;;;;25.48;15.75;;;9.40;99.90;;;;;;5008596;28;20029;-60
2021/10/31 04:08:42;;;;;;;26.73;17.27;;;9.40;99.90;;;;;;5013883;28;20025;-59
2021/10/31 04:11:08;;;;;;;26.98;16.42;;;9.40;99.90;;;;;;5017978;28;20025;-60
2021/10/31 04:13:34;;;;;;;31.08;17.40;;;9.30;99.90;;;;;;5012588;28;20054;-58
2021/10/31 04:16:01;;;;;;;23.33;15.77;;;9.30;99.90;;;;;;5013261;28;20033;-60
2021/10/31 04:18:26;;;;;;;26.65;16.45;;;9.30;99.90;;;;;;4994513;28;20188;-60
2021/10/31 04:20:52;;;;;;;25.30;15.27;;;9.30;99.90;;;;;;5012862;28;20380;-59
2021/10/31 04:23:17;;;;;;;22.00;14.10;;;9.30;99.90;;;;;;5011081;28;20088;-59
2021/10/31 04:25:43;;;;;;;26.38;15.52;;;9.30;99.90;;;;;;5018118;28;20022;-60
2021/10/31 04:28:08;;;;;;;19.13;13.35;;;9.40;99.90;;;;;;5011040;28;20026;-61
2021/10/31 04:30:34;;;;;;;25.80;15.13;;;9.40;99.90;;;;;;5013755;28;20034;-62
2021/10/31 04:33:00;;;;;;;20.20;12.77;;;9.40;99.90;;;;;;5012220;28;20502;-61
2021/10/31 04:35:25;;;;;;;19.13;13.20;;;9.40;99.90;;;;;;5017632;28;20505;-62
2021/10/31 04:37:54;;;;;;;20.55;13.05;;;9.40;99.90;;;;;;5011750;28;20041;-60
2021/10/31 04:40:21;;;;;;;18.70;13.48;;;9.40;99.90;;;;;;5017566;28;20021;-59
2021/10/31 04:42:48;;;;;;;19.23;12.43;;;9.40;99.90;;;;;;5012198;28;20033;-57
2021/10/31 04:45:13;;;;;;;21.48;13.18;;;9.40;99.90;;;;;;5019837;28;20022;-60
2021/10/31 04:47:40;;;;;;;24.70;15.18;;;9.30;99.90;;;;;;5010909;28;20018;-60
2021/10/31 04:50:06;;;;;;;23.65;13.30;;;9.40;99.90;;;;;;5013755;28;20507;-60
2021/10/31 04:52:32;;;;;;;21.65;13.77;;;9.40;99.90;;;;;;5016971;28;20037;-59
2021/10/31 04:54:58;;;;;;;21.65;12.27;;;9.30;99.90;;;;;;5012644;28;20041;-60
2021/10/31 04:57:23;;;;;;;18.60;12.18;;;9.20;99.90;;;;;;5012904;28;20018;-59
2021/10/31 04:59:49;;;;;;;16.52;10.10;;;9.10;99.90;;;;;;5012045;28;20108;-60
2021/10/31 05:02:14;;;;;;;14.77;10.38;;;9.00;99.90;;;;;;5007803;28;20042;-59
2021/10/31 05:04:40;;;;;;;16.70;10.45;;;8.90;99.90;;;;;;5013160;28;20140;-59
2021/10/31 05:07:06;;;;;;;16.35;12.13;;;8.90;99.90;;;;;;5016269;28;20029;-59
2021/10/31 05:09:31;;;;;;;17.55;10.40;;;8.80;99.90;;;;;;5012437;28;20440;-60
2021/10/31 05:11:57;;;;;;;14.60;9.95;;;8.80;99.90;;;;;;5011220;28;20038;-60
2021/10/31 05:14:22;;;;;;;15.02;10.50;;;8.70;99.90;;;;;;5010876;28;20029;-59
2021/10/31 05:16:48;;;;;;;21.92;11.77;;;8.60;99.90;;;;;;5012287;28;20112;-60
2021/10/31 05:19:14;;;;;;;22.42;11.65;;;8.60;99.90;;;;;;4999480;28;20045;-59
2021/10/31 05:21:39;;;;;;;23.67;14.75;;;8.60;99.90;;;;;;5010133;28;20460;-60
2021/10/31 05:24:05;;;;;;;18.25;12.75;;;8.60;99.90;;;;;;5015588;28;20458;-61
2021/10/31 05:26:31;;;;;;;17.10;12.75;;;8.50;99.90;;;;;;5020452;28;20438;-58
2021/10/31 05:28:56;;;;;;;17.95;12.25;;;8.50;99.90;;;;;;5012566;28;20101;-58
2021/10/31 05:31:23;;;;;;;16.85;11.80;;;8.40;99.90;;;;;;5010403;28;20079;-60
2021/10/31 05:33:51;;;;;;;14.25;10.30;;;8.40;99.90;;;;;;5010811;28;20048;-61
2021/10/31 05:36:17;;;;;;;15.05;10.35;;;8.40;99.90;;;;;;5009729;28;20028;-60
2021/10/31 05:38:42;;;;;;;12.93;9.38;;;8.40;99.90;;;;;;5011087;28;20112;-59
2021/10/31 05:41:08;;;;;;;12.45;8.80;;;8.40;99.90;;;;;;5012431;28;20436;-61
2021/10/31 05:43:33;;;;;;;13.30;9.07;;;8.40;99.90;;;;;;5012234;28;20034;-60
2021/10/31 05:45:59;;;;;;;13.93;7.70;;;8.40;99.90;;;;;;5012127;28;20395;-60
2021/10/31 05:48:25;;;;;;;8.90;7.43;;;8.40;99.90;;;;;;5013139;28;20030;-60
2021/10/31 05:50:55;;;;;;;11.30;7.97;;;8.40;99.90;;;;;;5014501;28;20105;-60
2021/10/31 05:53:22;;;;;;;9.95;6.57;;;8.40;99.90;;;;;;5010138;28;20450;-59
2021/10/31 05:55:47;;;;;;;10.10;7.22;;;8.40;99.90;;;;;;5006158;28;20652;-60
2021/10/31 05:58:13;;;;;;;10.38;7.45;;;8.30;99.90;;;;;;5005902;28;20121;-62
2021/10/31 06:00:39;;;;;;;13.18;8.73;;;8.30;99.90;;;;;;5014521;28;20405;-59
2021/10/31 06:03:05;;;;;;;13.25;8.18;;;8.30;99.90;;;;;;5013279;28;20033;-60
2021/10/31 06:05:31;;;;;;;10.35;7.32;;;8.30;99.90;;;;;;5011197;28;20121;-61
2021/10/31 06:07:57;;;;;;;10.25;7.72;;;8.30;99.90;;;;;;5009447;28;20523;-59
2021/10/31 06:10:22;;;;;;;12.70;8.23;;;8.30;99.90;;;;;;5010352;28;20026;-58
2021/10/31 06:12:49;;;;;;;11.45;8.35;;;8.30;99.90;;;;;;5016138;28;20030;-59
2021/10/31 06:15:21;;;;;;;11.57;8.20;;;8.30;99.90;;;;;;5011462;28;20069;-61
2021/10/31 06:17:47;;;;;;;15.40;9.55;;;8.30;99.90;;;;;;5014316;28;20029;-61
2021/10/31 06:20:14;;;;;;;16.15;11.65;;;8.30;99.90;;;;;;5014614;28;20544;-60
2021/10/31 06:22:40;;;;;;;15.90;9.70;;;8.40;99.90;;;;;;5008225;28;20030;-60
2021/10/31 06:25:08;;;;;;;18.27;11.68;;;8.50;99.90;;;;;;4986731;28;20052;-60
2021/10/31 06:27:34;;;;;;;16.65;10.15;;;8.50;99.90;;;;;;5016510;28;20384;-54
2021/10/31 06:30:00;;;;;;;17.65;11.13;;;8.40;99.90;;;;;;5007869;28;20031;-60
2021/10/31 06:32:26;;;;;;;16.65;11.57;;;8.50;99.90;;;;;;5011701;28;20021;-59
2021/10/31 06:34:51;;;;;;;18.05;11.45;;;8.40;99.90;;;;;;5010735;28;20029;-60
2021/10/31 06:37:17;;;;;;;17.48;10.75;;;8.50;99.90;;;;;;5010155;28;20041;-61
2021/10/31 06:39:43;;;;;;;16.42;11.30;;;8.50;99.90;;;;;;5013803;28;20076;-57
2021/10/31 06:42:08;;;;;;;17.65;11.15;;;8.60;99.90;;;;;;5009089;28;20037;-61
2021/10/31 06:44:34;;;;;;;16.77;11.70;;;8.60;99.90;;;;;;5010981;28;20044;-61
2021/10/31 06:47:00;;;;;;;18.92;10.75;;;8.60;99.90;;;;;;5018975;28;20029;-61
2021/10/31 06:49:26;;;;;;;20.95;12.95;;;8.60;99.90;;;;;;5014056;28;20025;-60
2021/10/31 06:51:51;;;;;;;26.20;13.63;;;8.60;99.90;;;;;;5015777;28;20018;-60
2021/10/31 06:54:17;;;;;;;19.23;12.40;;;8.70;99.90;;;;;;5009570;28;20030;-62
2021/10/31 06:56:43;;;;;;;18.85;12.05;;;8.80;99.90;;;;;;5015342;28;20021;-60
2021/10/31 06:59:08;;;;;;;20.38;11.88;;;8.80;99.90;;;;;;5008285;28;20152;-61
2021/10/31 07:01:34;;;;;;;19.80;15.27;;;8.90;99.90;;;;;;5009415;28;20385;-62
2021/10/31 07:04:00;;;;;;;20.30;14.50;;;8.90;99.90;;;;;;5009296;28;20022;-60
2021/10/31 07:06:26;;;;;;;17.23;13.32;;;8.90;99.90;;;;;;5009174;28;20033;-58
2021/10/31 07:08:51;;;;;;;18.05;10.93;;;9.00;99.90;;;;;;5010702;28;20018;-61
2021/10/31 07:11:17;;;;;;;28.40;15.25;;;9.10;99.90;;;;;;5012641;28;20060;-61
2021/10/31 07:13:42;;;;;;;28.73;16.35;;;9.10;99.90;;;;;;5013741;28;20034;-60
2021/10/31 07:16:08;;;;;;;27.02;14.27;;;9.20;99.90;;;;;;5015785;28;20033;-59
2021/10/31 07:18:34;;;;;;;13.77;9.95;;;9.30;99.90;;;;;;5013254;28;20060;-61
2021/10/31 07:21:00;;;;;;;15.98;10.35;;;9.50;99.90;;;;;;5011224;28;20482;-61
2021/10/31 07:23:25;;;;;;;13.38;9.38;;;9.50;99.90;;;;;;5009842;28;20488;-61
2021/10/31 07:25:51;;;;;;;10.13;8.23;;;9.70;99.90;;;;;;5017881;28;20040;-61
2021/10/31 07:28:17;;;;;;;11.90;8.38;;;9.80;99.90;;;;;;4998628;28;20042;-62
2021/10/31 07:30:43;;;;;;;11.93;7.65;;;9.90;99.90;;;;;;5011834;28;20029;-60
2021/10/31 07:33:09;;;;;;;24.45;11.45;;;10.00;99.90;;;;;;5009607;28;20038;-62
2021/10/31 07:35:34;;;;;;;33.67;16.02;;;10.10;99.90;;;;;;5010391;28;20562;-61
2021/10/31 07:38:02;;;;;;;15.20;9.65;;;10.30;99.90;;;;;;5012392;28;20487;-60
2021/10/31 07:40:27;;;;;;;13.30;8.77;;;10.40;99.90;;;;;;5010127;28;20053;-62
2021/10/31 07:42:53;;;;;;;13.25;8.52;;;10.60;99.90;;;;;;5021203;28;20124;-62
2021/10/31 07:45:18;;;;;;;8.40;6.57;;;10.70;99.90;;;;;;5026794;28;20376;-61
2021/10/31 07:47:44;;;;;;;11.68;8.18;;;10.80;99.90;;;;;;5020101;28;20022;-59
2021/10/31 07:50:10;;;;;;;9.30;6.72;;;10.90;99.90;;;;;;5019056;28;20064;-60
2021/10/31 07:52:42;;;;;;;10.32;7.00;;;11.00;99.90;;;;;;5013013;28;20029;-61
2021/10/31 07:55:10;;;;;;;10.88;7.03;;;11.10;99.90;;;;;;5011635;28;20430;-62
2021/10/31 07:57:35;;;;;;;5.80;5.18;;;11.30;99.90;;;;;;5011787;28;20026;-62
2021/10/31 08:00:03;;;;;;;7.05;5.93;;;11.40;99.90;;;;;;5005743;28;20030;-62
2021/10/31 08:02:28;;;;;;;9.20;5.47;;;11.40;99.90;;;;;;5010684;28;20181;-62
2021/10/31 08:04:54;;;;;;;8.63;5.10;;;11.60;99.90;;;;;;5017017;28;20146;-61
2021/10/31 08:07:26;;;;;;;5.70;4.78;;;11.60;99.90;;;;;;5013359;28;20046;-62
2021/10/31 08:09:52;;;;;;;10.60;5.05;;;11.70;99.90;;;;;;5017135;28;20046;-62
2021/10/31 08:12:17;;;;;;;4.45;4.05;;;11.70;99.90;;;;;;5018518;28;20054;-60
2021/10/31 08:14:43;;;;;;;6.43;4.80;;;11.80;99.90;;;;;;5023600;28;20021;-60
2021/10/31 08:17:08;;;;;;;6.00;4.43;;;11.90;99.90;;;;;;5014756;28;20103;-59
2021/10/31 08:19:34;;;;;;;6.30;4.32;;;11.90;99.90;;;;;;5013434;28;20033;-59
2021/10/31 08:21:59;;;;;;;9.15;4.40;;;11.90;99.90;;;;;;5011038;28;20365;-62
2021/10/31 08:24:26;;;;;;;5.55;4.30;;;12.00;99.90;;;;;;5012053;28;20461;-63
2021/10/31 08:26:51;;;;;;;5.20;4.70;;;12.00;99.90;;;;;;5015294;28;20042;-60
2021/10/31 08:29:19;;;;;;;5.90;5.13;;;12.00;99.90;;;;;;5005495;28;20050;-61
2021/10/31 08:31:49;;;;;;;6.97;5.10;;;12.00;99.90;;;;;;5012479;28;20030;-61
2021/10/31 08:34:15;;;;;;;9.75;5.82;;;12.10;99.90;;;;;;5011412;28;20032;-61
2021/10/31 08:36:41;;;;;;;4.75;4.20;;;12.30;99.90;;;;;;5018130;28;20057;-61
2021/10/31 08:39:07;;;;;;;6.25;4.63;;;12.50;99.90;;;;;;5010006;28;20510;-61
2021/10/31 08:41:34;;;;;;;7.28;4.32;;;12.60;99.90;;;;;;5018250;28;20117;-61
2021/10/31 08:44:00;;;;;;;11.20;5.03;;;12.80;99.90;;;;;;5014473;28;20025;-60
2021/10/31 08:46:27;;;;;;;10.05;4.40;;;12.90;99.90;;;;;;5008682;28;20034;-62
2021/10/31 08:48:54;;;;;;;5.72;4.43;;;13.00;99.90;;;;;;5009909;28;20037;-60
2021/10/31 08:51:24;;;;;;;6.40;4.75;;;13.00;99.90;;;;;;5010757;28;20057;-60
2021/10/31 08:53:51;;;;;;;6.60;4.75;;;13.00;99.90;;;;;;5015683;28;20040;-60
2021/10/31 08:56:16;;;;;;;6.90;3.90;;;13.10;99.90;;;;;;5012133;28;20030;-62
2021/10/31 08:58:43;;;;;;;5.22;3.95;;;13.10;99.90;;;;;;5013540;28;20045;-61
2021/10/31 09:01:11;;;;;;;5.90;4.97;;;13.20;99.90;;;;;;5014507;28;20025;-62
2021/10/31 09:03:37;;;;;;;9.07;5.00;;;13.20;99.90;;;;;;5018373;28;20026;-61
2021/10/31 09:06:03;;;;;;;6.32;4.10;;;13.30;99.90;;;;;;5012221;28;20030;-61
2021/10/31 09:08:28;;;;;;;6.03;4.10;;;13.40;99.90;;;;;;5010130;28;20030;-59
2021/10/31 09:10:54;;;;;;;5.07;3.92;;;13.50;99.90;;;;;;5012462;28;20042;-62
2021/10/31 09:13:20;;;;;;;8.77;4.57;;;13.60;99.90;;;;;;5021046;28;20029;-59
2021/10/31 09:15:46;;;;;;;5.72;4.28;;;13.60;99.90;;;;;;5014062;28;20489;-62
2021/10/31 09:18:11;;;;;;;7.72;4.50;;;13.70;99.90;;;;;;5010416;28;20168;-60
2021/10/31 09:20:37;;;;;;;7.78;3.88;;;13.90;99.90;;;;;;5011647;28;20034;-62
2021/10/31 09:23:05;;;;;;;9.27;3.72;;;14.00;99.90;;;;;;5014013;28;20046;-62
2021/10/31 09:25:32;;;;;;;5.43;3.95;;;14.10;99.90;;;;;;5008827;28;20067;-61
2021/10/31 09:27:59;;;;;;;8.13;4.47;;;14.40;99.90;;;;;;5008330;28;20066;-61
2021/10/31 09:30:26;;;;;;;4.25;3.53;;;14.50;99.90;;;;;;5011346;28;20045;-62
2021/10/31 09:32:52;;;;;;;6.10;3.45;;;14.70;99.90;;;;;;5008582;28;20399;-61
2021/10/31 09:35:26;;;;;;;5.75;3.40;;;14.80;99.90;;;;;;5011119;28;20426;-62
2021/10/31 09:38:11;;;;;;;8.95;3.55;;;14.70;99.90;;;;;;5008042;28;20034;-60
2021/10/31 09:40:37;;;;;;;6.30;3.50;;;14.70;99.90;;;;;;5009402;28;20033;-62
2021/10/31 09:43:04;;;;;;;4.40;3.20;;;14.60;99.90;;;;;;5010377;28;20037;-62
2021/10/31 09:45:31;;;;;;;4.13;3.25;;;14.50;99.90;;;;;;5011126;28;20097;-62
2021/10/31 09:48:00;;;;;;;3.50;3.20;;;14.40;99.90;;;;;;5001633;28;20113;-60
2021/10/31 09:50:28;;;;;;;6.55;3.13;;;14.40;99.90;;;;;;5015144;28;20077;-61
2021/10/31 09:52:54;;;;;;;5.35;3.63;;;14.30;99.90;;;;;;5014671;28;20029;-61
2021/10/31 09:55:21;;;;;;;4.43;3.17;;;14.30;99.90;;;;;;5008632;28;20025;-62
2021/10/31 09:57:46;;;;;;;6.88;3.13;;;14.20;99.90;;;;;;5017786;28;20030;-60
2021/10/31 10:00:14;;;;;;;4.40;3.03;;;14.20;99.90;;;;;;5018324;28;20549;-61
2021/10/31 10:03:01;;;;;;;3.55;2.47;;;14.20;99.90;;;;;;5011429;28;20026;-61
2021/10/31 10:05:29;;;;;;;6.47;2.95;;;14.20;99.90;;;;;;5011505;28;20026;-61
2021/10/31 10:08:12;;;;;;;4.85;3.03;;;14.30;99.90;;;;;;5009750;28;20341;-62
2021/10/31 10:10:44;;;;;;;4.87;3.10;;;14.30;99.90;;;;;;5011577;28;20022;-61
2021/10/31 10:13:27;;;;;;;6.07;2.65;;;14.40;99.90;;;;;;5012436;28;20025;-62
2021/10/31 10:16:11;;;;;;;6.35;3.05;;;14.40;99.90;;;;;;5010842;28;20018;-62
2021/10/31 10:18:37;;;;;;;3.47;2.65;;;14.60;99.90;;;;;;5010753;28;20048;-63
2021/10/31 10:21:19;;;;;;;6.20;2.95;;;14.80;99.90;;;;;;5014071;28;20034;-62
2021/10/31 10:24:09;;;;;;;4.13;2.30;;;15.10;99.90;;;;;;5012074;28;20037;-61
2021/10/31 10:26:43;;;;;;;3.50;2.17;;;15.50;99.90;;;;;;5011865;28;20034;-62
2021/10/31 10:29:09;;;;;;;4.70;2.03;;;15.70;99.90;;;;;;5013729;28;20022;-61
2021/10/31 10:31:35;;;;;;;4.75;1.63;;;15.90;99.90;;;;;;5017894;28;20033;-60
2021/10/31 10:34:00;;;;;;;5.03;2.25;;;16.10;99.90;;;;;;5011196;28;20392;-59
2021/10/31 10:36:26;;;;;;;2.67;1.95;;;16.10;99.90;;;;;;5011430;28;20033;-60
2021/10/31 10:39:11;;;;;;;3.40;2.00;;;16.10;99.90;;;;;;5010740;28;20101;-59
2021/10/31 10:41:43;;;;;;;3.50;1.90;;;16.00;99.90;;;;;;5013104;28;20054;-61
2021/10/31 10:44:36;;;;;;;4.07;2.38;;;16.00;99.90;;;;;;5013521;28;20034;-60
2021/10/31 10:47:09;;;;;;;2.03;1.60;;;16.00;99.90;;;;;;5005148;28;20145;-60
2021/10/31 10:49:38;;;;;;;4.07;2.80;;;16.00;99.90;;;;;;5011494;28;20029;-61
2021/10/31 10:52:07;;;;;;;6.30;1.90;;;16.10;99.90;;;;;;5010329;28;20479;-61
2021/10/31 10:54:37;;;;;;;3.40;2.20;;;16.10;99.90;;;;;;5015556;28;20060;-62
2021/10/31 10:57:06;;;;;;;3.72;2.00;;;16.10;99.90;;;;;;5007868;28;20687;-59
2021/10/31 10:59:34;;;;;;;2.47;1.90;;;16.10;99.90;;;;;;5021069;28;20029;-62
2021/10/31 11:02:17;;;;;;;3.03;2.35;;;16.10;99.90;;;;;;5009630;28;20045;-61
2021/10/31 11:04:51;;;;;;;3.63;1.83;;;16.20;99.90;;;;;;5010167;28;20029;-62
2021/10/31 11:07:17;;;;;;;;;;;16.20;99.90;;;;;;5010063;28;20499;-62
2021/10/31 11:09:46;;;;;;;2.33;1.80;;;16.30;99.90;;;;;;5009068;28;20016;-60
2021/10/31 11:12:23;;;;;;;2.58;1.73;;;16.30;99.90;;;;;;5007351;28;20029;-62
2021/10/31 11:14:50;;;;;;;3.35;1.83;;;16.40;99.90;;;;;;5013046;28;20032;-61
2021/10/31 11:17:20;;;;;;;3.35;1.63;;;16.50;99.90;;;;;;5008363;28;20496;-61
2021/10/31 11:19:46;;;;;;;4.40;1.60;;;16.70;99.90;;;;;;5006145;28;20096;-61
2021/10/31 11:22:13;;;;;;;5.63;1.48;;;16.70;99.90;;;;;;5015204;28;20503;-61
2021/10/31 11:24:40;;;;;;;3.22;1.40;;;16.70;99.90;;;;;;5012244;28;20483;-62
2021/10/31 11:27:11;;;;;;;3.30;1.77;;;16.60;99.90;;;;;;5009079;28;20392;-62
2021/10/31 11:29:37;;;;;;;2.03;1.63;;;16.60;99.90;;;;;;5009378;28;20033;-61
2021/10/31 11:32:03;;;;;;;3.45;1.55;;;16.40;99.90;;;;;;5009061;28;20117;-61
2021/10/31 11:34:29;;;;;;;3.20;1.65;;;16.40;99.90;;;;;;5009649;28;20022;-61
2021/10/31 11:36:56;;;;;;;3.58;2.17;;;16.30;99.90;;;;;;5006248;28;20041;-59
2021/10/31 11:39:22;;;;;;;2.83;1.75;;;16.30;99.90;;;;;;5013762;28;20672;-62
2021/10/31 11:41:49;;;;;;;1.95;1.63;;;16.30;99.90;;;;;;5011259;28;20125;-63
2021/10/31 11:44:14;;;;;;;2.83;1.98;;;16.30;99.90;;;;;;5016043;28;20061;-61
2021/10/31 11:46:42;;;;;;;5.32;1.90;;;16.10;99.90;;;;;;5013275;28;20479;-62
2021/10/31 11:49:09;;;;;;;2.85;1.90;;;16.10;99.90;;;;;;5005672;28;20030;-62
2021/10/31 11:51:40;;;;;;;13.45;3.55;;;16.20;99.90;;;;;;5012680;28;20067;-62
2021/10/31 11:54:12;;;;;;;5.32;1.45;;;16.30;99.90;;;;;;5016207;28;20034;-62
2021/10/31 11:56:43;;;;;;;3.63;1.40;;;16.40;99.90;;;;;;5004701;28;20527;-61
2021/10/31 11:59:16;;;;;;;3.38;1.88;;;16.50;99.90;;;;;;4988508;28;20072;-62
2021/10/31 12:01:55;;;;;;;2.25;1.48;;;16.50;99.90;;;;;;5011357;28;20056;-63
2021/10/31 12:05:33;;;;;;;3.30;1.50;;;16.60;99.90;;;;;;5012599;28;20091;-60
2021/10/31 12:07:41;;;;;;;1.85;1.60;;;16.60;99.90;;;;;;4992772;28;20041;-60
2021/10/31 12:10:27;;;;;;;3.35;1.40;;;16.40;99.90;;;;;;5008035;28;20022;-60
2021/10/31 12:13:21;;;;;;;2.67;1.60;;;16.40;99.90;;;;;;5005550;28;20531;-59
2021/10/31 12:16:10;;;;;;;1.97;1.50;;;16.30;99.90;;;;;;4999441;28;20768;-60
2021/10/31 12:18:52;;;;;;;2.95;1.80;;;16.20;99.90;;;;;;5002689;28;20446;-63
2021/10/31 12:21:41;;;;;;;3.33;1.80;;;16.30;99.90;;;;;;5006428;28;20034;-60
2021/10/31 12:24:15;;;;;;;2.35;1.90;;;16.20;99.90;;;;;;5008387;28;20060;-60
2021/10/31 12:26:44;;;;;;;4.38;1.40;;;16.30;99.90;;;;;;5008445;28;20032;-61
2021/10/31 12:29:23;;;;;;;2.47;1.75;;;16.30;99.90;;;;;;5009509;28;20399;-58
2021/10/31 12:32:11;;;;;;;2.20;1.38;;;16.20;99.90;;;;;;5011054;28;20036;-59
2021/10/31 12:34:43;;;;;;;3.72;1.63;;;16.30;99.90;;;;;;5010801;28;20037;-60
2021/10/31 12:37:24;;;;;;;2.20;1.52;;;16.30;99.90;;;;;;5013324;28;20029;-57
2021/10/31 12:39:54;;;;;;;3.30;1.85;;;16.30;99.90;;;;;;5013378;28;20049;-58
2021/10/31 12:42:27;;;;;;;8.35;2.08;;;16.40;99.90;;;;;;5011154;28;20033;-59
2021/10/31 12:45:19;;;;;;;3.40;1.80;;;16.50;99.90;;;;;;5011856;28;20034;-58
2021/10/31 12:48:04;;;;;;;3.08;1.58;;;16.50;99.90;;;;;;5009686;28;20273;-62
2021/10/31 12:50:31;;;;;;;2.08;1.67;;;16.50;99.90;;;;;;5007608;28;20144;-62